Latest Weather Observations for Legendre Island

IDW60801

Issued at 11:02 pm WST Tuesday 7 July 2015 (issued every 30 minutes, with the page automatically refreshed every 10 minutes)

About weather observations | Map of weather stations | Latest weather observations for WA | Other Formats
Station Details ID: 004095 Name: LEGENDRE ISLAND Lat: -20.36 Lon: 116.84 Height: 29.0 m
Data from the previous 72 hours. | See also: Recent months for locations in Western Australia
Date/Time
WST
Temp
°C
App
Temp
°C
Dew
Point
Rel
Hum
%
Delta-T
°C
Wind Press
QNH
hPa
Press
MSL
hPa
Rain
since 9 am
mm
Dir
 
Spd
km/h
Gust
km/h
Spd
kts
Gust
kts
07/11:00pm 17.8 15.2 13.9 78 2.2 SSW 20 22 11 12 1015.7 1015.6 -
07/10:30pm 18.3 16.2 13.6 74 2.7 SSW 17 20 9 11 1015.8 1015.7 -
07/10:00pm 18.8 17.9 10.6 59 4.4 W 6 13 3 7 1015.7 1015.6 -
07/09:30pm 22.4 21.6 11.8 51 6.0 N 7 9 4 5 1015.7 1015.6 -
07/09:00pm 22.6 20.8 11.0 48 6.4 N 11 13 6 7 1015.7 1015.6 -
07/08:30pm 22.5 21.0 11.9 51 6.0 N 11 13 6 7 1015.7 1015.6 -
07/08:00pm 22.5 20.5 12.7 54 5.6 NNE 15 17 8 9 1015.5 1015.4 -
07/07:30pm 22.6 20.3 11.7 50 6.1 NNE 15 17 8 9 1015.3 1015.3 -
07/07:00pm 22.6 20.8 11.0 48 6.4 NNE 11 13 6 7 1015.3 1015.3 -
07/06:30pm 22.4 20.8 10.2 46 6.7 NNE 9 11 5 6 1015.2 1015.2 -
07/06:00pm 22.5 21.0 10.6 47 6.5 NE 9 11 5 6 1015.0 1015.0 -
07/05:30pm 23.0 21.0 10.1 44 7.1 ENE 11 13 6 7 1014.9 1014.9 -
07/05:00pm 23.7 22.0 10.0 42 7.5 E 9 11 5 6 1014.8 1014.8 -
07/04:30pm 24.2 22.1 9.8 40 7.9 E 11 13 6 7 1014.6 1014.6 -
07/04:00pm 24.5 21.7 8.5 36 8.6 E 13 17 7 9 1014.5 1014.5 -
07/03:30pm 24.8 22.4 9.9 39 8.2 E 13 15 7 8 1014.5 1014.5 -
07/03:00pm 24.9 21.7 8.4 35 8.8 ENE 15 17 8 9 1014.5 1014.5 -
07/02:30pm 24.9 21.2 8.0 34 9.0 E 17 20 9 11 1014.6 1014.6 -
07/02:00pm 25.2 21.7 8.7 35 8.9 E 17 20 9 11 1014.9 1014.9 -
07/01:30pm 25.0 21.7 9.7 38 8.4 E 17 19 9 10 1015.2 1015.2 -
07/01:00pm 25.2 21.5 7.8 33 9.2 E 17 20 9 11 1015.7 1015.6 -
07/12:30pm 25.0 22.7 10.5 40 8.1 ESE 13 17 7 9 1016.2 1016.1 -
07/12:00pm 24.6 20.5 7.7 34 8.9 ESE 19 22 10 12 1016.5 1016.4 -
07/11:30am 24.5 20.8 9.6 39 8.1 ESE 19 22 10 12 1016.9 1016.8 -
07/11:00am 24.7 20.6 7.8 34 8.9 ESE 19 24 10 13 1017.2 1017.1 -
07/10:30am 24.4 20.0 8.8 37 8.4 ESE 22 28 12 15 1017.3 1017.2 -
07/10:00am 23.4 19.0 9.0 40 7.7 SE 22 26 12 14 1017.5 1017.4 -
07/09:30am 22.6 17.9 7.6 38 7.8 SE 22 28 12 15 1017.4 1017.3 -
07/09:00am 22.3 18.0 7.7 39 7.6 SE 20 24 11 13 1017.1 1017.0 -
07/08:30am 21.4 17.5 8.7 44 6.7 SSE 19 24 10 13 1016.8 1016.7 -
07/08:00am 20.3 15.5 7.3 43 6.6 SSE 22 26 12 14 1016.3 1016.2 -
07/07:30am 18.8 14.2 8.2 50 5.5 SSE 22 28 12 15 1016.1 1016.0 -
07/07:00am 16.8 12.7 7.7 55 4.6 SSE 19 22 10 12 1015.9 1015.8 -
07/06:30am 16.8 12.7 8.8 59 4.1 S 20 20 11 11 1015.7 1015.6 -
07/06:00am 17.0 13.4 9.7 62 3.8 S 19 22 10 12 1015.3 1015.3 -
07/05:30am 17.4 13.9 10.3 63 3.8 S 19 22 10 12 1015.5 1015.4 -
07/05:00am 17.2 15.0 10.8 66 3.4 S 13 15 7 8 1015.5 1015.4 -
07/04:30am 17.2 14.5 11.7 70 3.0 S 17 19 9 10 1015.3 1015.3 -
07/04:00am 17.5 15.1 12.6 73 2.7 S 17 20 9 11 1015.3 1015.3 -
07/03:30am 17.3 14.9 12.6 74 2.6 S 17 19 9 10 1015.2 1015.2 -
07/03:00am 17.3 14.9 12.8 75 2.5 S 17 17 9 9 1015.5 1015.4 -
07/02:30am 17.8 15.7 13.7 77 2.3 S 17 19 9 10 1015.7 1015.6 -
07/02:00am 18.2 15.9 14.1 77 2.3 S 19 20 10 11 1015.7 1015.6 -
07/01:30am 18.2 16.1 13.7 75 2.6 S 17 17 9 9 1015.9 1015.8 -
07/01:00am 18.3 17.0 13.8 75 2.6 S 13 17 7 9 1016.2 1016.1 -
07/12:30am 18.3 17.0 13.8 75 2.6 S 13 13 7 7 1016.2 1016.1 -
07/12:00am 18.7 18.0 14.2 75 2.6 S 11 15 6 8 1016.2 1016.1 -
 
Date/Time
WST
Temp
°C
App
Temp
°C
Dew
Point
Rel
Hum
%
Delta-T
°C
Wind Press
QNH
hPa
Press
MSL
hPa
Rain
since 9 am
mm
Dir
 
Spd
km/h
Gust
km/h
Spd
kts
Gust
kts
06/11:30pm 19.1 18.7 14.1 73 2.9 S 9 13 5 7 1016.4 1016.3 -
06/11:00pm 19.1 18.7 14.1 73 2.9 S 9 11 5 6 1016.4 1016.3 -
06/10:30pm 19.9 19.9 14.3 70 3.2 SSE 7 9 4 5 1016.7 1016.6 -
06/10:00pm 19.1 18.2 12.6 66 3.6 S 9 13 5 7 1016.8 1016.7 -
06/09:30pm 22.6 20.8 11.0 48 6.4 NE 11 13 6 7 1016.6 1016.5 -
06/09:00pm 22.5 20.6 10.6 47 6.5 NE 11 15 6 8 1016.8 1016.7 -
06/08:30pm 22.7 20.8 10.5 46 6.7 NNE 11 13 6 7 1016.6 1016.5 -
06/08:00pm 22.7 20.8 10.5 46 6.7 NNE 11 13 6 7 1016.6 1016.5 -
06/07:30pm 22.6 21.2 11.0 48 6.4 NNE 9 11 5 6 1016.5 1016.4 -
06/07:00pm 22.9 21.4 10.7 46 6.7 NNE 9 11 5 6 1016.3 1016.2 -
06/06:30pm 22.7 21.2 10.5 46 6.7 NNE 9 11 5 6 1016.1 1016.0 -
06/06:00pm 22.9 21.7 10.3 45 6.9 NNE 7 9 4 5 1015.9 1015.8 -
06/05:30pm 23.3 22.0 11.4 47 6.7 NNE 9 9 5 5 1015.7 1015.6 -
06/05:00pm 24.0 22.2 10.7 43 7.4 NNE 11 15 6 8 1015.6 1015.5 -
06/04:30pm 24.6 22.9 11.2 43 7.5 NNE 11 13 6 7 1015.5 1015.4 -
06/04:00pm 24.9 23.0 11.8 44 7.4 NE 13 17 7 9 1015.5 1015.4 -
06/03:30pm 25.1 22.4 10.2 39 8.3 NE 15 17 8 9 1015.7 1015.6 -
06/03:00pm 24.9 22.2 10.4 40 8.0 NE 15 17 8 9 1015.7 1015.6 -
06/02:30pm 25.1 22.0 10.2 39 8.3 ENE 17 19 9 10 1015.9 1015.8 -
06/02:00pm 25.1 22.2 12.3 45 7.3 ENE 19 22 10 12 1016.0 1015.9 -
06/01:30pm 25.1 22.3 12.7 46 7.2 ENE 19 22 10 12 1016.1 1016.0 -
06/01:00pm 24.9 22.1 12.5 46 7.1 ENE 19 20 10 11 1016.6 1016.5 -
06/12:30pm 24.7 21.7 12.0 45 7.2 ENE 19 24 10 13 1016.9 1016.8 -
06/12:00pm 24.6 21.8 13.2 49 6.6 ENE 20 22 11 12 1017.2 1017.1 -
06/11:30am 24.1 22.0 12.4 48 6.7 E 15 19 8 10 1017.6 1017.5 -
06/11:00am 24.2 21.6 10.8 43 7.5 E 15 17 8 9 1017.9 1017.8 -
06/10:30am 24.1 21.1 10.7 43 7.5 ESE 17 19 9 10 1018.2 1018.1 -
06/10:00am 23.2 19.9 10.9 46 6.8 ESE 19 22 10 12 1018.2 1018.1 -
06/09:30am 23.1 18.7 8.8 40 7.6 ESE 22 28 12 15 1018.2 1018.1 -
06/09:00am 22.4 19.4 10.5 47 6.5 SE 17 22 9 12 1018.0 1017.9 -
06/08:30am 21.4 18.4 10.6 50 5.9 SE 17 22 9 12 1017.8 1017.7 -
06/08:00am 20.1 17.4 11.8 59 4.6 SE 17 19 9 10 1017.6 1017.5 -
06/07:30am 18.3 15.2 12.3 68 3.3 SSE 20 22 11 12 1017.3 1017.2 -
06/07:00am 17.1 14.1 10.5 65 3.5 SSE 17 19 9 10 1017.1 1017.0 -
06/06:30am 17.4 13.4 9.1 58 4.3 SSE 20 22 11 12 1016.8 1016.7 -
06/06:00am 17.2 13.9 9.6 61 4.0 S 17 19 9 10 1016.7 1016.6 -
06/05:30am 17.5 13.3 8.4 55 4.7 S 20 24 11 13 1016.4 1016.3 -
06/05:00am 17.6 15.3 10.5 63 3.8 S 13 15 7 8 1016.4 1016.3 -
06/04:30am 17.7 15.5 10.8 64 3.7 S 13 15 7 8 1016.4 1016.3 -
06/04:00am 17.7 15.1 10.8 64 3.7 SSW 15 17 8 9 1016.4 1016.3 -
06/03:30am 18.1 15.8 11.9 67 3.4 S 15 17 8 9 1016.3 1016.2 -
06/03:00am 17.7 16.1 12.8 73 2.7 S 13 15 7 8 1016.5 1016.4 -
06/02:30am 17.8 16.6 13.9 78 2.2 S 13 13 7 7 1016.8 1016.7 -
06/02:00am 18.0 16.1 14.3 79 2.1 S 17 19 9 10 1017.0 1016.9 -
06/01:30am 18.0 16.9 15.3 84 1.6 S 15 17 8 9 1017.1 1017.0 -
06/01:00am 18.7 17.3 16.9 89 1.1 SSW 20 22 11 12 1017.2 1017.1 -
06/12:30am 18.7 17.4 16.7 88 1.2 SSW 19 24 10 13 1017.5 1017.4 -
06/12:00am 18.6 17.1 15.3 81 1.9 SSW 17 17 9 9 1017.6 1017.5 -
 
Date/Time
WST
Temp
°C
App
Temp
°C
Dew
Point
Rel
Hum
%
Delta-T
°C
Wind Press
QNH
hPa
Press
MSL
hPa
Rain
since 9 am
mm
Dir
 
Spd
km/h
Gust
km/h
Spd
kts
Gust
kts
05/11:30pm 18.4 16.5 14.1 76 2.5 SSW 17 19 9 10 1017.7 1017.6 -
05/11:00pm 18.7 17.9 14.0 74 2.7 SSW 11 13 6 7 1017.6 1017.5 -
05/10:30pm 18.9 18.5 14.0 73 2.8 S 9 9 5 5 1017.5 1017.4 -
05/10:00pm 19.1 19.3 14.6 75 2.6 S 7 9 4 5 1017.5 1017.4 -
05/09:30pm 19.4 19.0 14.0 71 3.1 S 9 15 5 8 1017.5 1017.4 -
05/09:00pm 22.4 21.7 10.2 46 6.7 N 4 4 2 2 1017.4 1017.3 -
05/08:30pm 22.3 21.1 9.5 44 6.9 N 6 6 3 3 1017.4 1017.3 -
05/08:00pm 22.8 21.1 11.2 48 6.5 N 11 13 6 7 1017.2 1017.1 -
05/07:30pm 22.7 21.0 11.1 48 6.4 N 11 13 6 7 1017.2 1017.1 -
05/07:00pm 22.7 21.1 11.4 49 6.3 NNE 11 15 6 8 1017.0 1016.9 -
05/06:30pm 22.8 20.5 10.6 46 6.7 NNE 13 15 7 8 1016.7 1016.6 -
05/06:00pm 22.9 20.5 11.3 48 6.5 NNE 15 17 8 9 1016.6 1016.5 -
05/05:30pm 23.3 20.8 11.0 46 6.8 NNE 15 17 8 9 1016.6 1016.5 -
05/05:00pm 23.8 21.1 10.5 43 7.3 NE 15 17 8 9 1016.8 1016.7 -
05/04:30pm 24.2 21.6 10.8 43 7.5 NE 15 17 8 9 1016.6 1016.5 -
05/04:00pm 24.5 22.1 10.0 40 8.0 NE 13 17 7 9 1016.7 1016.6 -
05/03:30pm 24.8 22.7 11.0 42 7.7 NE 13 15 7 8 1016.8 1016.7 -
05/03:00pm 24.6 22.3 10.5 41 7.8 ENE 13 15 7 8 1016.9 1016.8 -
05/02:30pm 24.9 22.5 11.5 43 7.6 ENE 15 17 8 9 1017.2 1017.1 -
05/02:00pm 25.0 23.1 12.9 47 7.0 ENE 15 19 8 10 1017.4 1017.3 -
05/01:30pm 24.7 22.2 12.3 46 7.1 ENE 17 20 9 11 1017.7 1017.6 -
05/01:00pm 24.8 21.2 11.7 44 7.4 ENE 22 26 12 14 1018.1 1018.0 -
05/12:30pm 24.7 21.2 12.3 46 7.1 E 22 26 12 14 1018.5 1018.4 -
05/12:00pm 24.5 21.2 12.8 48 6.7 E 22 24 12 13 1019.1 1019.0 -
05/11:30am 24.3 21.5 12.6 48 6.7 E 19 24 10 13 1019.4 1019.3 -
05/11:00am 24.2 21.3 12.8 49 6.6 E 20 24 11 13 1019.8 1019.7 -
05/10:30am 23.9 20.8 12.2 48 6.7 E 20 26 11 14 1019.9 1019.8 -
05/10:00am 23.7 20.0 12.7 50 6.3 E 24 26 13 14 1020.1 1020.0 -
05/09:30am 23.4 20.4 12.4 50 6.3 E 20 24 11 13 1020.2 1020.1 -
05/09:00am 23.0 20.0 12.0 50 6.2 ESE 19 22 10 12 1020.2 1020.1 -
05/08:30am 22.1 19.8 11.8 52 5.8 ESE 15 19 8 10 1019.9 1019.8 -
05/08:00am 20.6 17.2 10.7 53 5.4 SE 19 22 10 12 1019.5 1019.4 -
05/07:30am 20.0 16.6 10.4 54 5.2 ESE 19 22 10 12 1019.2 1019.1 -
05/07:00am 18.7 14.5 9.8 56 4.7 SE 22 24 12 13 1018.9 1018.8 -
05/06:30am 19.1 15.4 10.1 56 4.8 SE 20 24 11 13 1018.5 1018.4 -
05/06:00am 18.9 15.8 12.2 65 3.7 SE 20 24 11 13 1018.2 1018.1 -
05/05:30am 17.7 14.4 11.7 68 3.3 SE 20 22 11 12 1018.0 1017.9 -
05/05:00am 17.2 14.2 12.5 74 2.6 SE 20 22 11 12 1017.8 1017.7 -
05/04:30am 18.4 16.2 13.3 72 2.9 SSE 17 17 9 9 1017.8 1017.7 -
05/04:00am 18.3 17.8 15.0 81 1.9 SSE 11 15 6 8 1017.8 1017.7 -
05/03:30am 18.0 17.5 14.9 82 1.8 S 11 11 6 6 1017.7 1017.6 -
05/03:00am 18.6 18.0 15.7 83 1.7 SSW 13 15 7 8 1017.8 1017.7 -
05/02:30am 18.6 18.1 16.0 85 1.5 S 13 15 7 8 1017.8 1017.7 -
05/02:00am 18.4 17.6 16.2 87 1.3 SSW 15 17 8 9 1018.0 1017.9 -
05/01:30am 18.6 18.0 16.6 88 1.2 SSW 15 17 8 9 1018.2 1018.1 -
05/01:00am 18.7 17.9 17.0 90 1.0 SSW 17 19 9 10 1018.3 1018.2 -
05/12:30am 19.1 18.3 17.9 93 0.7 SSW 19 20 10 11 1018.2 1018.1 -
05/12:00am 19.1 18.1 17.6 91 0.9 SSW 19 20 10 11 1018.2 1018.1 -
 
Date/Time
WST
Temp
°C
App
Temp
°C
Dew
Point
Rel
Hum
%
Delta-T
°C
Wind Press
QNH
hPa
Press
MSL
hPa
Rain
since 9 am
mm
Dir
 
Spd
km/h
Gust
km/h
Spd
kts
Gust
kts
04/11:30pm 19.1 17.5 16.1 83 1.8 SSW 19 20 10 11 1018.3 1018.2 -

Other Formats:

Comma delimited format used in spreadsheet applications
http://www.bom.gov.au/fwo/IDW60801/IDW60801.94307.axf

JavaScript Object Notation format (JSON) in row-major order
http://www.bom.gov.au/fwo/IDW60801/IDW60801.94307.json